sensor_id;sensor_type;location;lat;lon;timestamp;temperature;humidity
296;DHT22;132;48.770;9.200;2022-11-18T00:00:44;8.70;1.00
296;DHT22;132;48.770;9.200;2022-11-18T00:03:31;8.80;1.00
296;DHT22;132;48.770;9.200;2022-11-18T00:06:22;8.80;1.00
296;DHT22;132;48.770;9.200;2022-11-18T00:09:09;8.70;1.00
296;DHT22;132;48.770;9.200;2022-11-18T00:11:56;8.70;1.00
296;DHT22;132;48.770;9.200;2022-11-18T00:15:01;8.70;1.00
296;DHT22;132;48.770;9.200;2022-11-18T00:17:48;8.70;1.00
296;DHT22;132;48.770;9.200;2022-11-18T00:20:35;9.30;1.00
296;DHT22;132;48.770;9.200;2022-11-18T00:23:21;8.80;1.00
296;DHT22;132;48.770;9.200;2022-11-18T00:26:12;8.80;1.00
296;DHT22;132;48.770;9.200;2022-11-18T00:28:59;8.80;1.00
296;DHT22;132;48.770;9.200;2022-11-18T00:31:46;9.00;1.00
296;DHT22;132;48.770;9.200;2022-11-18T00:34:33;8.90;1.00
296;DHT22;132;48.770;9.200;2022-11-18T00:37:20;8.80;1.00
296;DHT22;132;48.770;9.200;2022-11-18T00:40:07;9.00;1.00
296;DHT22;132;48.770;9.200;2022-11-18T00:42:53;8.90;1.00
296;DHT22;132;48.770;9.200;2022-11-18T00:45:42;9.00;1.00
296;DHT22;132;48.770;9.200;2022-11-18T00:48:29;8.80;1.00
296;DHT22;132;48.770;9.200;2022-11-18T00:51:17;8.80;1.00
296;DHT22;132;48.770;9.200;2022-11-18T00:54:04;8.80;1.00
296;DHT22;132;48.770;9.200;2022-11-18T00:56:50;8.70;1.00
296;DHT22;132;48.770;9.200;2022-11-18T00:59:37;8.70;1.00
296;DHT22;132;48.770;9.200;2022-11-18T01:02:24;8.60;1.00
296;DHT22;132;48.770;9.200;2022-11-18T01:05:10;8.70;1.00
296;DHT22;132;48.770;9.200;2022-11-18T01:07:57;8.90;1.00
296;DHT22;132;48.770;9.200;2022-11-18T01:10:44;9.50;1.00
296;DHT22;132;48.770;9.200;2022-11-18T01:13:32;8.70;1.00
296;DHT22;132;48.770;9.200;2022-11-18T01:16:20;8.90;1.00
296;DHT22;132;48.770;9.200;2022-11-18T01:19:07;8.70;1.00
296;DHT22;132;48.770;9.200;2022-11-18T01:21:54;8.70;1.00
296;DHT22;132;48.770;9.200;2022-11-18T01:24:42;8.70;1.00
296;DHT22;132;48.770;9.200;2022-11-18T01:27:28;8.60;1.00
296;DHT22;132;48.770;9.200;2022-11-18T01:30:15;8.80;1.00
296;DHT22;132;48.770;9.200;2022-11-18T01:33:05;8.70;1.00
296;DHT22;132;48.770;9.200;2022-11-18T01:35:51;8.60;1.00
296;DHT22;132;48.770;9.200;2022-11-18T01:38:38;8.70;1.00
296;DHT22;132;48.770;9.200;2022-11-18T01:41:25;8.60;1.00
296;DHT22;132;48.770;9.200;2022-11-18T01:47:43;8.70;1.00
296;DHT22;132;48.770;9.200;2022-11-18T01:50:31;8.70;1.00
296;DHT22;132;48.770;9.200;2022-11-18T01:53:33;8.70;1.00
296;DHT22;132;48.770;9.200;2022-11-18T01:56:23;8.80;1.00
296;DHT22;132;48.770;9.200;2022-11-18T01:59:14;8.70;1.00
296;DHT22;132;48.770;9.200;2022-11-18T02:02:07;8.70;1.00
296;DHT22;132;48.770;9.200;2022-11-18T02:04:55;8.90;1.00
296;DHT22;132;48.770;9.200;2022-11-18T02:07:42;8.70;1.00
296;DHT22;132;48.770;9.200;2022-11-18T02:10:29;8.70;1.00
296;DHT22;132;48.770;9.200;2022-11-18T02:13:16;8.70;1.00
296;DHT22;132;48.770;9.200;2022-11-18T02:16:10;8.70;1.00
296;DHT22;132;48.770;9.200;2022-11-18T02:19:03;8.80;1.00
296;DHT22;132;48.770;9.200;2022-11-18T02:22:11;8.70;1.00
296;DHT22;132;48.770;9.200;2022-11-18T02:28:35;8.60;1.00
296;DHT22;132;48.770;9.200;2022-11-18T02:37:43;8.60;1.00
296;DHT22;132;48.770;9.200;2022-11-18T02:40:51;8.60;1.00
296;DHT22;132;48.770;9.200;2022-11-18T02:43:44;8.60;1.00
296;DHT22;132;48.770;9.200;2022-11-18T02:46:34;8.60;1.00
296;DHT22;132;48.770;9.200;2022-11-18T02:49:28;9.00;1.00
296;DHT22;132;48.770;9.200;2022-11-18T02:52:18;8.80;1.00
296;DHT22;132;48.770;9.200;2022-11-18T02:55:08;8.70;1.00
296;DHT22;132;48.770;9.200;2022-11-18T02:57:57;8.60;1.00
296;DHT22;132;48.770;9.200;2022-11-18T03:00:44;8.60;1.00
296;DHT22;132;48.770;9.200;2022-11-18T03:03:37;8.60;1.00
296;DHT22;132;48.770;9.200;2022-11-18T03:09:35;8.70;1.00
296;DHT22;132;48.770;9.200;2022-11-18T03:12:42;8.70;1.00
296;DHT22;132;48.770;9.200;2022-11-18T03:21:32;8.70;1.00
296;DHT22;132;48.770;9.200;2022-11-18T03:24:32;8.90;1.00
296;DHT22;132;48.770;9.200;2022-11-18T03:27:37;8.70;1.00
296;DHT22;132;48.770;9.200;2022-11-18T03:30:25;8.70;1.00
296;DHT22;132;48.770;9.200;2022-11-18T03:33:16;8.70;1.00
296;DHT22;132;48.770;9.200;2022-11-18T03:36:05;8.70;1.00
296;DHT22;132;48.770;9.200;2022-11-18T03:38:55;8.70;1.00
296;DHT22;132;48.770;9.200;2022-11-18T03:41:48;8.70;1.00
296;DHT22;132;48.770;9.200;2022-11-18T03:44:37;8.90;1.00
296;DHT22;132;48.770;9.200;2022-11-18T03:47:32;8.10;1.00
296;DHT22;132;48.770;9.200;2022-11-18T03:50:28;8.80;1.00
296;DHT22;132;48.770;9.200;2022-11-18T03:53:17;8.70;1.00
296;DHT22;132;48.770;9.200;2022-11-18T03:56:09;8.90;1.00
296;DHT22;132;48.770;9.200;2022-11-18T03:59:06;8.90;1.00
296;DHT22;132;48.770;9.200;2022-11-18T04:02:10;8.80;1.00
296;DHT22;132;48.770;9.200;2022-11-18T04:04:59;8.80;1.00
296;DHT22;132;48.770;9.200;2022-11-18T04:08:00;8.70;1.00
296;DHT22;132;48.770;9.200;2022-11-18T04:11:18;8.70;1.00
296;DHT22;132;48.770;9.200;2022-11-18T04:14:53;8.70;1.00
296;DHT22;132;48.770;9.200;2022-11-18T04:17:42;8.80;1.00
296;DHT22;132;48.770;9.200;2022-11-18T04:20:28;8.70;1.00
296;DHT22;132;48.770;9.200;2022-11-18T04:23:17;8.70;1.00
296;DHT22;132;48.770;9.200;2022-11-18T04:26:03;9.50;1.00
296;DHT22;132;48.770;9.200;2022-11-18T04:28:50;8.70;1.00
296;DHT22;132;48.770;9.200;2022-11-18T04:31:37;8.70;1.00
296;DHT22;132;48.770;9.200;2022-11-18T04:34:23;8.90;1.00
296;DHT22;132;48.770;9.200;2022-11-18T04:37:10;8.60;1.00
296;DHT22;132;48.770;9.200;2022-11-18T04:39:56;8.60;1.00
296;DHT22;132;48.770;9.200;2022-11-18T04:42:43;8.60;1.00
296;DHT22;132;48.770;9.200;2022-11-18T04:45:30;8.60;1.00
296;DHT22;132;48.770;9.200;2022-11-18T04:48:16;8.60;1.00
296;DHT22;132;48.770;9.200;2022-11-18T04:51:05;8.60;1.00
296;DHT22;132;48.770;9.200;2022-11-18T04:53:51;8.50;1.00
296;DHT22;132;48.770;9.200;2022-11-18T04:56:39;8.60;1.00
296;DHT22;132;48.770;9.200;2022-11-18T04:59:27;8.90;1.00
296;DHT22;132;48.770;9.200;2022-11-18T05:02:14;8.60;1.00
296;DHT22;132;48.770;9.200;2022-11-18T05:05:01;8.50;1.00
296;DHT22;132;48.770;9.200;2022-11-18T05:07:49;8.80;1.00
296;DHT22;132;48.770;9.200;2022-11-18T05:10:37;8.40;1.00
296;DHT22;132;48.770;9.200;2022-11-18T05:13:24;8.60;1.00
296;DHT22;132;48.770;9.200;2022-11-18T05:16:10;8.40;1.00
296;DHT22;132;48.770;9.200;2022-11-18T05:18:57;8.60;1.00
296;DHT22;132;48.770;9.200;2022-11-18T05:21:44;8.40;1.00
296;DHT22;132;48.770;9.200;2022-11-18T05:24:30;8.30;1.00
296;DHT22;132;48.770;9.200;2022-11-18T05:27:17;8.40;1.00
296;DHT22;132;48.770;9.200;2022-11-18T05:30:04;8.20;1.00
296;DHT22;132;48.770;9.200;2022-11-18T05:32:51;8.10;1.00
296;DHT22;132;48.770;9.200;2022-11-18T05:35:38;8.40;1.00
296;DHT22;132;48.770;9.200;2022-11-18T05:38:24;8.10;1.00
296;DHT22;132;48.770;9.200;2022-11-18T05:41:11;8.20;1.00
296;DHT22;132;48.770;9.200;2022-11-18T05:44:21;8.10;1.00
296;DHT22;132;48.770;9.200;2022-11-18T05:47:08;8.10;1.00
296;DHT22;132;48.770;9.200;2022-11-18T05:49:55;8.10;1.00
296;DHT22;132;48.770;9.200;2022-11-18T05:52:41;8.30;1.00
296;DHT22;132;48.770;9.200;2022-11-18T05:55:43;8.10;1.00
296;DHT22;132;48.770;9.200;2022-11-18T05:58:33;8.00;1.00
296;DHT22;132;48.770;9.200;2022-11-18T06:01:30;8.00;1.00
296;DHT22;132;48.770;9.200;2022-11-18T06:04:26;7.90;1.00
296;DHT22;132;48.770;9.200;2022-11-18T06:10:05;7.90;1.00
296;DHT22;132;48.770;9.200;2022-11-18T06:12:55;7.90;1.00
296;DHT22;132;48.770;9.200;2022-11-18T06:15:44;8.00;1.00
296;DHT22;132;48.770;9.200;2022-11-18T06:18:31;7.90;1.00
296;DHT22;132;48.770;9.200;2022-11-18T06:21:18;8.00;1.00
296;DHT22;132;48.770;9.200;2022-11-18T06:24:05;8.00;1.00
296;DHT22;132;48.770;9.200;2022-11-18T06:26:52;7.90;1.00
296;DHT22;132;48.770;9.200;2022-11-18T06:29:39;7.90;1.00
296;DHT22;132;48.770;9.200;2022-11-18T06:32:25;7.90;1.00
296;DHT22;132;48.770;9.200;2022-11-18T06:35:12;7.90;1.00
296;DHT22;132;48.770;9.200;2022-11-18T06:37:59;7.90;1.00
296;DHT22;132;48.770;9.200;2022-11-18T06:40:45;7.90;1.00
296;DHT22;132;48.770;9.200;2022-11-18T06:43:32;7.90;1.00
296;DHT22;132;48.770;9.200;2022-11-18T06:46:26;7.80;1.00
296;DHT22;132;48.770;9.200;2022-11-18T06:49:31;7.90;1.00
296;DHT22;132;48.770;9.200;2022-11-18T06:52:18;8.00;1.00
296;DHT22;132;48.770;9.200;2022-11-18T06:55:05;8.00;1.00
296;DHT22;132;48.770;9.200;2022-11-18T06:57:55;7.90;1.00
296;DHT22;132;48.770;9.200;2022-11-18T07:00:42;7.90;1.00
296;DHT22;132;48.770;9.200;2022-11-18T07:03:28;8.00;1.00
296;DHT22;132;48.770;9.200;2022-11-18T07:06:20;8.00;1.00
296;DHT22;132;48.770;9.200;2022-11-18T07:09:07;8.20;1.00
296;DHT22;132;48.770;9.200;2022-11-18T07:11:53;8.00;1.00
296;DHT22;132;48.770;9.200;2022-11-18T07:14:40;8.00;1.00
296;DHT22;132;48.770;9.200;2022-11-18T07:17:29;8.20;1.00
296;DHT22;132;48.770;9.200;2022-11-18T07:20:16;8.00;1.00
296;DHT22;132;48.770;9.200;2022-11-18T07:23:02;8.00;1.00
296;DHT22;132;48.770;9.200;2022-11-18T07:25:53;8.00;1.00
296;DHT22;132;48.770;9.200;2022-11-18T07:28:40;8.00;1.00
296;DHT22;132;48.770;9.200;2022-11-18T07:31:27;8.00;1.00
296;DHT22;132;48.770;9.200;2022-11-18T07:34:13;8.00;1.00
296;DHT22;132;48.770;9.200;2022-11-18T07:37:00;8.10;1.00
296;DHT22;132;48.770;9.200;2022-11-18T07:39:47;7.90;1.00
296;DHT22;132;48.770;9.200;2022-11-18T07:42:33;8.10;1.00
296;DHT22;132;48.770;9.200;2022-11-18T07:45:41;8.20;1.00
296;DHT22;132;48.770;9.200;2022-11-18T07:48:28;8.20;1.00
296;DHT22;132;48.770;9.200;2022-11-18T07:51:16;8.20;1.00
296;DHT22;132;48.770;9.200;2022-11-18T07:54:07;8.40;1.00
296;DHT22;132;48.770;9.200;2022-11-18T07:56:54;8.20;1.00
296;DHT22;132;48.770;9.200;2022-11-18T07:59:41;8.20;1.00
296;DHT22;132;48.770;9.200;2022-11-18T08:02:30;8.30;1.00
296;DHT22;132;48.770;9.200;2022-11-18T08:05:16;8.30;1.00
296;DHT22;132;48.770;9.200;2022-11-18T08:08:03;8.40;1.00
296;DHT22;132;48.770;9.200;2022-11-18T08:10:50;8.40;1.00
296;DHT22;132;48.770;9.200;2022-11-18T08:13:37;8.40;1.00
296;DHT22;132;48.770;9.200;2022-11-18T08:16:24;8.40;1.00
296;DHT22;132;48.770;9.200;2022-11-18T08:19:11;8.50;1.00
296;DHT22;132;48.770;9.200;2022-11-18T08:21:58;8.50;1.00
296;DHT22;132;48.770;9.200;2022-11-18T08:24:45;8.50;1.00
296;DHT22;132;48.770;9.200;2022-11-18T08:27:32;8.60;1.00
296;DHT22;132;48.770;9.200;2022-11-18T08:30:19;8.90;1.00
296;DHT22;132;48.770;9.200;2022-11-18T08:33:06;8.70;1.00
296;DHT22;132;48.770;9.200;2022-11-18T08:35:53;8.70;1.00
296;DHT22;132;48.770;9.200;2022-11-18T08:38:39;8.70;1.00
296;DHT22;132;48.770;9.200;2022-11-18T08:41:41;8.80;1.00
296;DHT22;132;48.770;9.200;2022-11-18T08:44:28;8.80;1.00
296;DHT22;132;48.770;9.200;2022-11-18T08:47:18;8.80;1.00
296;DHT22;132;48.770;9.200;2022-11-18T08:50:07;8.80;1.00
296;DHT22;132;48.770;9.200;2022-11-18T08:52:54;8.90;1.00
296;DHT22;132;48.770;9.200;2022-11-18T08:55:40;9.00;1.00
296;DHT22;132;48.770;9.200;2022-11-18T08:58:27;9.00;1.00
296;DHT22;132;48.770;9.200;2022-11-18T09:01:14;9.20;1.00
296;DHT22;132;48.770;9.200;2022-11-18T09:04:00;9.00;1.00
296;DHT22;132;48.770;9.200;2022-11-18T09:06:47;9.00;1.00
296;DHT22;132;48.770;9.200;2022-11-18T09:09:34;9.10;1.00
296;DHT22;132;48.770;9.200;2022-11-18T09:12:20;9.10;1.00
296;DHT22;132;48.770;9.200;2022-11-18T09:15:07;9.10;1.00
296;DHT22;132;48.770;9.200;2022-11-18T09:17:56;9.10;1.00
296;DHT22;132;48.770;9.200;2022-11-18T09:20:59;9.10;1.00
296;DHT22;132;48.770;9.200;2022-11-18T09:23:46;9.10;1.00
296;DHT22;132;48.770;9.200;2022-11-18T09:26:32;9.20;1.00
296;DHT22;132;48.770;9.200;2022-11-18T09:29:19;9.10;1.00
296;DHT22;132;48.770;9.200;2022-11-18T09:32:10;9.10;1.00
296;DHT22;132;48.770;9.200;2022-11-18T09:34:57;9.10;1.00
296;DHT22;132;48.770;9.200;2022-11-18T09:37:44;9.10;1.00
296;DHT22;132;48.770;9.200;2022-11-18T09:40:30;9.10;1.00
296;DHT22;132;48.770;9.200;2022-11-18T09:43:47;9.10;1.00
296;DHT22;132;48.770;9.200;2022-11-18T09:47:06;9.10;1.00
296;DHT22;132;48.770;9.200;2022-11-18T09:53:20;9.00;1.00
296;DHT22;132;48.770;9.200;2022-11-18T09:56:13;9.10;1.00
296;DHT22;132;48.770;9.200;2022-11-18T09:59:02;8.90;1.00
296;DHT22;132;48.770;9.200;2022-11-18T10:01:51;9.10;1.00
296;DHT22;132;48.770;9.200;2022-11-18T10:04:38;9.40;1.00
296;DHT22;132;48.770;9.200;2022-11-18T10:07:40;9.20;1.00
296;DHT22;132;48.770;9.200;2022-11-18T10:10:40;9.30;1.00
296;DHT22;132;48.770;9.200;2022-11-18T10:13:32;9.40;1.00
296;DHT22;132;48.770;9.200;2022-11-18T10:16:57;9.40;1.00
296;DHT22;132;48.770;9.200;2022-11-18T10:19:53;9.50;1.00
296;DHT22;132;48.770;9.200;2022-11-18T10:22:55;9.70;1.00
296;DHT22;132;48.770;9.200;2022-11-18T10:25:44;9.50;1.00
296;DHT22;132;48.770;9.200;2022-11-18T10:28:30;9.50;1.00
296;DHT22;132;48.770;9.200;2022-11-18T10:31:17;9.60;1.00
296;DHT22;132;48.770;9.200;2022-11-18T10:34:03;9.60;1.00
296;DHT22;132;48.770;9.200;2022-11-18T10:37:05;9.60;1.00
296;DHT22;132;48.770;9.200;2022-11-18T10:39:54;9.70;1.00
296;DHT22;132;48.770;9.200;2022-11-18T10:42:43;9.80;1.00
296;DHT22;132;48.770;9.200;2022-11-18T10:45:33;9.80;1.00
296;DHT22;132;48.770;9.200;2022-11-18T10:48:20;9.90;1.00
296;DHT22;132;48.770;9.200;2022-11-18T10:51:27;10.00;1.00
296;DHT22;132;48.770;9.200;2022-11-18T10:54:21;10.10;1.00
296;DHT22;132;48.770;9.200;2022-11-18T10:57:22;10.30;1.00
296;DHT22;132;48.770;9.200;2022-11-18T11:12:11;9.60;1.00
296;DHT22;132;48.770;9.200;2022-11-18T11:15:10;9.50;1.00
296;DHT22;132;48.770;9.200;2022-11-18T11:18:02;9.40;1.00
296;DHT22;132;48.770;9.200;2022-11-18T11:21:17;9.60;1.00
296;DHT22;132;48.770;9.200;2022-11-18T11:24:10;9.30;1.00
296;DHT22;132;48.770;9.200;2022-11-18T11:27:05;9.40;1.00
296;DHT22;132;48.770;9.200;2022-11-18T11:33:06;9.60;1.00
296;DHT22;132;48.770;9.200;2022-11-18T11:54:44;10.20;1.00
296;DHT22;132;48.770;9.200;2022-11-18T12:07:20;10.30;1.00
296;DHT22;132;48.770;9.200;2022-11-18T12:19:37;10.20;1.00
296;DHT22;132;48.770;9.200;2022-11-18T12:28:43;10.10;1.00
296;DHT22;132;48.770;9.200;2022-11-18T12:31:31;9.80;1.00
296;DHT22;132;48.770;9.200;2022-11-18T12:34:34;9.70;1.00
296;DHT22;132;48.770;9.200;2022-11-18T12:40:10;9.40;1.00
296;DHT22;132;48.770;9.200;2022-11-18T12:44:03;9.30;1.00
296;DHT22;132;48.770;9.200;2022-11-18T12:55:29;9.20;1.00
296;DHT22;132;48.770;9.200;2022-11-18T12:58:24;9.10;1.00
296;DHT22;132;48.770;9.200;2022-11-18T13:01:14;9.10;1.00
296;DHT22;132;48.770;9.200;2022-11-18T13:04:19;9.10;1.00
296;DHT22;132;48.770;9.200;2022-11-18T13:07:10;9.20;1.00
296;DHT22;132;48.770;9.200;2022-11-18T13:10:22;9.20;1.00
296;DHT22;132;48.770;9.200;2022-11-18T13:13:28;9.50;1.00
296;DHT22;132;48.770;9.200;2022-11-18T13:16:23;9.50;1.00
296;DHT22;132;48.770;9.200;2022-11-18T13:19:29;9.70;1.00
296;DHT22;132;48.770;9.200;2022-11-18T13:22:17;9.70;1.00
296;DHT22;132;48.770;9.200;2022-11-18T13:25:23;9.70;1.00
296;DHT22;132;48.770;9.200;2022-11-18T13:34:25;10.00;1.00
296;DHT22;132;48.770;9.200;2022-11-18T13:37:27;9.90;1.00
296;DHT22;132;48.770;9.200;2022-11-18T13:40:23;9.90;1.00
296;DHT22;132;48.770;9.200;2022-11-18T13:43:11;10.00;1.00
296;DHT22;132;48.770;9.200;2022-11-18T13:46:04;10.00;1.00
296;DHT22;132;48.770;9.200;2022-11-18T13:48:56;10.00;1.00
296;DHT22;132;48.770;9.200;2022-11-18T13:51:44;10.10;1.00
296;DHT22;132;48.770;9.200;2022-11-18T13:54:31;9.80;1.00
296;DHT22;132;48.770;9.200;2022-11-18T13:57:19;9.60;1.00
296;DHT22;132;48.770;9.200;2022-11-18T14:00:20;9.60;1.00
296;DHT22;132;48.770;9.200;2022-11-18T14:03:29;9.70;1.00
296;DHT22;132;48.770;9.200;2022-11-18T14:09:17;9.70;1.00
296;DHT22;132;48.770;9.200;2022-11-18T14:18:38;9.50;1.00
296;DHT22;132;48.770;9.200;2022-11-18T14:21:32;9.40;1.00
296;DHT22;132;48.770;9.200;2022-11-18T14:24:28;9.50;1.00
296;DHT22;132;48.770;9.200;2022-11-18T14:27:41;9.20;1.00
296;DHT22;132;48.770;9.200;2022-11-18T14:30:39;9.20;1.00
296;DHT22;132;48.770;9.200;2022-11-18T14:33:31;9.20;1.00
296;DHT22;132;48.770;9.200;2022-11-18T14:36:18;9.20;1.00
296;DHT22;132;48.770;9.200;2022-11-18T14:39:17;9.20;1.00
296;DHT22;132;48.770;9.200;2022-11-18T14:42:09;9.20;1.00
296;DHT22;132;48.770;9.200;2022-11-18T14:44:56;9.40;1.00
296;DHT22;132;48.770;9.200;2022-11-18T14:47:43;9.40;1.00
296;DHT22;132;48.770;9.200;2022-11-18T14:50:30;9.70;1.00
296;DHT22;132;48.770;9.200;2022-11-18T14:53:18;9.00;1.00
296;DHT22;132;48.770;9.200;2022-11-18T14:56:17;9.30;1.00
296;DHT22;132;48.770;9.200;2022-11-18T14:59:09;9.00;1.00
296;DHT22;132;48.770;9.200;2022-11-18T15:01:56;8.90;1.00
296;DHT22;132;48.770;9.200;2022-11-18T15:04:44;9.10;1.00
296;DHT22;132;48.770;9.200;2022-11-18T15:07:30;9.20;1.00
296;DHT22;132;48.770;9.200;2022-11-18T15:10:17;8.90;1.00
296;DHT22;132;48.770;9.200;2022-11-18T15:13:04;8.80;1.00
296;DHT22;132;48.770;9.200;2022-11-18T15:15:52;9.10;1.00
296;DHT22;132;48.770;9.200;2022-11-18T15:18:39;8.80;1.00
296;DHT22;132;48.770;9.200;2022-11-18T15:21:26;9.00;1.00
296;DHT22;132;48.770;9.200;2022-11-18T15:24:13;9.60;1.00
296;DHT22;132;48.770;9.200;2022-11-18T15:27:00;8.90;1.00
296;DHT22;132;48.770;9.200;2022-11-18T15:29:51;8.90;1.00
296;DHT22;132;48.770;9.200;2022-11-18T15:32:38;8.80;1.00
296;DHT22;132;48.770;9.200;2022-11-18T15:35:25;8.80;1.00
296;DHT22;132;48.770;9.200;2022-11-18T15:38:11;9.00;1.00
296;DHT22;132;48.770;9.200;2022-11-18T15:40:58;9.00;1.00
296;DHT22;132;48.770;9.200;2022-11-18T15:43:45;8.80;1.00
296;DHT22;132;48.770;9.200;2022-11-18T15:46:31;8.80;1.00
296;DHT22;132;48.770;9.200;2022-11-18T15:49:19;8.80;1.00
296;DHT22;132;48.770;9.200;2022-11-18T15:52:05;8.80;1.00
296;DHT22;132;48.770;9.200;2022-11-18T15:54:52;8.80;1.00
296;DHT22;132;48.770;9.200;2022-11-18T15:57:39;8.80;1.00
296;DHT22;132;48.770;9.200;2022-11-18T16:00:26;8.80;1.00
296;DHT22;132;48.770;9.200;2022-11-18T16:03:12;8.80;1.00
296;DHT22;132;48.770;9.200;2022-11-18T16:05:59;8.80;1.00
296;DHT22;132;48.770;9.200;2022-11-18T16:08:46;8.80;1.00
296;DHT22;132;48.770;9.200;2022-11-18T16:11:32;8.80;1.00
296;DHT22;132;48.770;9.200;2022-11-18T16:14:38;8.70;1.00
296;DHT22;132;48.770;9.200;2022-11-18T16:17:25;8.70;1.00
296;DHT22;132;48.770;9.200;2022-11-18T16:20:11;8.80;1.00
296;DHT22;132;48.770;9.200;2022-11-18T16:22:58;8.70;1.00
296;DHT22;132;48.770;9.200;2022-11-18T16:25:45;8.90;1.00
296;DHT22;132;48.770;9.200;2022-11-18T16:28:31;8.60;1.00
296;DHT22;132;48.770;9.200;2022-11-18T16:31:19;8.60;1.00
296;DHT22;132;48.770;9.200;2022-11-18T16:34:27;8.60;1.00
296;DHT22;132;48.770;9.200;2022-11-18T16:37:14;8.60;1.00
296;DHT22;132;48.770;9.200;2022-11-18T16:40:00;8.80;1.00
296;DHT22;132;48.770;9.200;2022-11-18T16:42:48;8.60;1.00
296;DHT22;132;48.770;9.200;2022-11-18T16:45:35;8.60;1.00
296;DHT22;132;48.770;9.200;2022-11-18T16:48:21;8.60;1.00
296;DHT22;132;48.770;9.200;2022-11-18T16:51:20;8.60;1.00
296;DHT22;132;48.770;9.200;2022-11-18T16:54:13;8.90;1.00
296;DHT22;132;48.770;9.200;2022-11-18T16:57:02;8.60;1.00
296;DHT22;132;48.770;9.200;2022-11-18T16:59:49;8.60;1.00
296;DHT22;132;48.770;9.200;2022-11-18T17:02:35;8.60;1.00
296;DHT22;132;48.770;9.200;2022-11-18T17:05:22;8.60;1.00
296;DHT22;132;48.770;9.200;2022-11-18T17:08:09;8.60;1.00
296;DHT22;132;48.770;9.200;2022-11-18T17:10:55;8.60;1.00
296;DHT22;132;48.770;9.200;2022-11-18T17:13:42;8.60;1.00
296;DHT22;132;48.770;9.200;2022-11-18T17:16:30;8.70;1.00
296;DHT22;132;48.770;9.200;2022-11-18T17:19:21;8.70;1.00
296;DHT22;132;48.770;9.200;2022-11-18T17:22:08;8.50;1.00
296;DHT22;132;48.770;9.200;2022-11-18T17:24:55;8.50;1.00
296;DHT22;132;48.770;9.200;2022-11-18T17:27:41;8.50;1.00
296;DHT22;132;48.770;9.200;2022-11-18T17:30:28;8.60;1.00
296;DHT22;132;48.770;9.200;2022-11-18T17:33:14;8.70;1.00
296;DHT22;132;48.770;9.200;2022-11-18T17:38:51;8.40;1.00
296;DHT22;132;48.770;9.200;2022-11-18T17:41:38;8.40;1.00
296;DHT22;132;48.770;9.200;2022-11-18T17:44:44;8.40;1.00
296;DHT22;132;48.770;9.200;2022-11-18T17:47:30;8.30;1.00
296;DHT22;132;48.770;9.200;2022-11-18T17:50:17;8.30;1.00
296;DHT22;132;48.770;9.200;2022-11-18T17:53:05;8.30;1.00
296;DHT22;132;48.770;9.200;2022-11-18T17:55:51;8.50;1.00
296;DHT22;132;48.770;9.200;2022-11-18T17:58:38;8.20;1.00
296;DHT22;132;48.770;9.200;2022-11-18T18:01:25;8.60;1.00
296;DHT22;132;48.770;9.200;2022-11-18T18:04:12;8.30;1.00
296;DHT22;132;48.770;9.200;2022-11-18T18:07:00;8.50;1.00
296;DHT22;132;48.770;9.200;2022-11-18T18:09:46;8.50;1.00
296;DHT22;132;48.770;9.200;2022-11-18T18:12:34;8.30;1.00
296;DHT22;132;48.770;9.200;2022-11-18T18:15:40;9.10;1.00
296;DHT22;132;48.770;9.200;2022-11-18T18:18:27;8.30;1.00
296;DHT22;132;48.770;9.200;2022-11-18T18:21:14;8.30;1.00
296;DHT22;132;48.770;9.200;2022-11-18T18:24:01;8.20;1.00
296;DHT22;132;48.770;9.200;2022-11-18T18:26:48;8.40;1.00
296;DHT22;132;48.770;9.200;2022-11-18T18:29:34;8.20;1.00
296;DHT22;132;48.770;9.200;2022-11-18T18:32:21;8.20;1.00
296;DHT22;132;48.770;9.200;2022-11-18T18:35:08;8.30;1.00
296;DHT22;132;48.770;9.200;2022-11-18T18:37:55;8.10;1.00
296;DHT22;132;48.770;9.200;2022-11-18T18:40:41;8.00;1.00
296;DHT22;132;48.770;9.200;2022-11-18T18:43:28;8.20;1.00
296;DHT22;132;48.770;9.200;2022-11-18T18:46:18;8.20;1.00
296;DHT22;132;48.770;9.200;2022-11-18T18:49:15;7.90;1.00
296;DHT22;132;48.770;9.200;2022-11-18T18:52:05;8.00;1.00
296;DHT22;132;48.770;9.200;2022-11-18T18:54:52;7.80;1.00
296;DHT22;132;48.770;9.200;2022-11-18T18:57:38;7.70;1.00
296;DHT22;132;48.770;9.200;2022-11-18T19:00:25;7.80;1.00
296;DHT22;132;48.770;9.200;2022-11-18T19:03:13;7.60;1.00
296;DHT22;132;48.770;9.200;2022-11-18T19:09:05;7.50;1.00
296;DHT22;132;48.770;9.200;2022-11-18T19:11:53;7.80;1.00
296;DHT22;132;48.770;9.200;2022-11-18T19:14:59;7.50;1.00
296;DHT22;132;48.770;9.200;2022-11-18T19:17:45;7.40;1.00
296;DHT22;132;48.770;9.200;2022-11-18T19:20:32;7.90;1.00
296;DHT22;132;48.770;9.200;2022-11-18T19:23:19;8.00;1.00
296;DHT22;132;48.770;9.200;2022-11-18T19:26:06;7.80;1.00
296;DHT22;132;48.770;9.200;2022-11-18T19:28:52;8.00;1.00
296;DHT22;132;48.770;9.200;2022-11-18T19:31:39;8.10;1.00
296;DHT22;132;48.770;9.200;2022-11-18T19:34:25;7.80;1.00
296;DHT22;132;48.770;9.200;2022-11-18T19:37:12;8.00;1.00
296;DHT22;132;48.770;9.200;2022-11-18T19:39:59;7.90;1.00
296;DHT22;132;48.770;9.200;2022-11-18T19:42:49;7.90;1.00
296;DHT22;132;48.770;9.200;2022-11-18T19:45:36;7.90;1.00
296;DHT22;132;48.770;9.200;2022-11-18T19:48:23;8.00;1.00
296;DHT22;132;48.770;9.200;2022-11-18T19:51:12;7.90;1.00
296;DHT22;132;48.770;9.200;2022-11-18T19:53:59;8.00;1.00
296;DHT22;132;48.770;9.200;2022-11-18T19:56:46;8.30;1.00
296;DHT22;132;48.770;9.200;2022-11-18T19:59:33;8.20;1.00
296;DHT22;132;48.770;9.200;2022-11-18T20:02:19;7.90;1.00
296;DHT22;132;48.770;9.200;2022-11-18T20:05:07;8.40;1.00
296;DHT22;132;48.770;9.200;2022-11-18T20:08:12;8.10;1.00
296;DHT22;132;48.770;9.200;2022-11-18T20:11:01;8.50;1.00
296;DHT22;132;48.770;9.200;2022-11-18T20:13:48;8.00;1.00
296;DHT22;132;48.770;9.200;2022-11-18T20:16:36;8.10;1.00
296;DHT22;132;48.770;9.200;2022-11-18T20:19:23;9.30;1.00
296;DHT22;132;48.770;9.200;2022-11-18T20:22:10;8.10;1.00
296;DHT22;132;48.770;9.200;2022-11-18T20:24:57;8.10;1.00
296;DHT22;132;48.770;9.200;2022-11-18T20:27:44;8.10;1.00
296;DHT22;132;48.770;9.200;2022-11-18T20:30:30;8.00;1.00
296;DHT22;132;48.770;9.200;2022-11-18T20:33:17;8.30;1.00
296;DHT22;132;48.770;9.200;2022-11-18T20:39:00;8.00;1.00
296;DHT22;132;48.770;9.200;2022-11-18T20:41:46;8.00;1.00
296;DHT22;132;48.770;9.200;2022-11-18T20:44:56;8.00;1.00
296;DHT22;132;48.770;9.200;2022-11-18T20:47:42;8.10;1.00
296;DHT22;132;48.770;9.200;2022-11-18T20:50:29;8.00;1.00
296;DHT22;132;48.770;9.200;2022-11-18T20:53:16;7.90;1.00
296;DHT22;132;48.770;9.200;2022-11-18T20:56:07;7.90;1.00
296;DHT22;132;48.770;9.200;2022-11-18T20:58:55;8.30;1.00
296;DHT22;132;48.770;9.200;2022-11-18T21:01:43;7.90;1.00
296;DHT22;132;48.770;9.200;2022-11-18T21:04:31;7.90;1.00
296;DHT22;132;48.770;9.200;2022-11-18T21:07:17;8.90;1.00
296;DHT22;132;48.770;9.200;2022-11-18T21:10:05;8.20;1.00
296;DHT22;132;48.770;9.200;2022-11-18T21:12:53;7.80;1.00
296;DHT22;132;48.770;9.200;2022-11-18T21:16:00;8.10;1.00
296;DHT22;132;48.770;9.200;2022-11-18T21:18:47;8.10;1.00
296;DHT22;132;48.770;9.200;2022-11-18T21:21:34;7.70;1.00
296;DHT22;132;48.770;9.200;2022-11-18T21:24:30;8.10;1.00
296;DHT22;132;48.770;9.200;2022-11-18T21:27:17;7.80;1.00
296;DHT22;132;48.770;9.200;2022-11-18T21:30:04;7.70;1.00
296;DHT22;132;48.770;9.200;2022-11-18T21:32:51;7.70;1.00
296;DHT22;132;48.770;9.200;2022-11-18T21:35:38;7.70;1.00
296;DHT22;132;48.770;9.200;2022-11-18T21:38:25;7.80;1.00
296;DHT22;132;48.770;9.200;2022-11-18T21:41:12;7.80;1.00
296;DHT22;132;48.770;9.200;2022-11-18T21:43:59;7.80;1.00
296;DHT22;132;48.770;9.200;2022-11-18T21:46:45;8.30;1.00
296;DHT22;132;48.770;9.200;2022-11-18T21:49:32;7.80;1.00
296;DHT22;132;48.770;9.200;2022-11-18T21:52:19;7.90;1.00